createdAt,value
2018-08-06T00:01:11.114Z,52.90
2018-08-06T00:03:39.882Z,53.10
2018-08-06T00:06:08.582Z,53.50
2018-08-06T00:13:34.241Z,53.90
2018-08-06T00:16:03.223Z,54.10
2018-08-06T00:18:31.919Z,54.30
2018-08-06T00:21:00.646Z,54.30
2018-08-06T00:23:29.446Z,54.40
2018-08-06T00:25:58.175Z,54.40
2018-08-06T00:30:55.299Z,54.80
2018-08-06T00:33:24.043Z,55.00
2018-08-06T00:35:53.054Z,55.20
2018-08-06T00:38:21.766Z,55.40
2018-08-06T00:40:50.483Z,55.40
2018-08-06T00:43:19.192Z,55.50
2018-08-06T00:45:47.907Z,55.40
2018-08-06T00:48:16.657Z,55.50
2018-08-06T00:50:45.371Z,55.90
2018-08-06T00:53:14.088Z,55.90
2018-08-06T00:55:42.797Z,56.00
2018-08-06T00:58:11.818Z,56.20
2018-08-06T01:03:08.958Z,56.50
2018-08-06T01:05:37.990Z,56.50
2018-08-06T01:08:06.708Z,56.70
2018-08-06T01:10:35.421Z,57.00
2018-08-06T01:13:04.147Z,57.00
2018-08-06T01:15:32.846Z,57.20
2018-08-06T01:18:08.075Z,57.60
2018-08-06T01:20:36.816Z,57.80
2018-08-06T01:23:05.547Z,58.00
2018-08-06T01:30:31.205Z,58.40
2018-08-06T01:32:59.956Z,58.20
2018-08-06T01:35:28.675Z,58.10
2018-08-06T01:37:57.380Z,58.30
2018-08-06T01:40:26.366Z,58.50
2018-08-06T01:42:55.066Z,58.80
2018-08-06T01:45:23.786Z,59.30
2018-08-06T01:47:52.508Z,59.50
2018-08-06T01:50:21.254Z,59.70
2018-08-06T01:52:50.307Z,59.90
2018-08-06T01:55:19.009Z,60.00
2018-08-06T01:57:47.704Z,60.20
2018-08-06T02:00:16.999Z,60.30
2018-08-06T02:02:45.733Z,60.00
2018-08-06T02:05:14.715Z,59.90
2018-08-06T02:07:43.494Z,59.50
2018-08-06T02:10:15.303Z,59.40
2018-08-06T02:15:13.492Z,60.20
2018-08-06T02:17:42.199Z,60.40
2018-08-06T02:20:13.751Z,60.60
2018-08-06T02:22:42.619Z,60.80
2018-08-06T02:27:40.299Z,60.90
2018-08-06T02:30:12.577Z,61.10
2018-08-06T02:35:12.514Z,61.60
2018-08-06T02:37:41.903Z,61.70
2018-08-06T02:42:39.918Z,62.10
2018-08-06T02:45:09.495Z,62.30
2018-08-06T02:47:38.909Z,62.30
2018-08-06T02:52:37.156Z,62.40
2018-08-06T02:55:07.455Z,62.70
2018-08-06T02:57:36.461Z,63.00
2018-08-06T03:00:07.962Z,63.70
2018-08-06T03:02:36.680Z,63.10
2018-08-06T03:05:11.472Z,63.10
2018-08-06T03:07:40.600Z,62.90
2018-08-06T03:10:09.400Z,62.70
2018-08-06T03:12:38.086Z,62.70
2018-08-06T03:15:07.872Z,62.90
2018-08-06T03:17:36.858Z,63.00
2018-08-06T03:22:39.904Z,63.40
2018-08-06T03:25:10.922Z,63.50
2018-08-06T03:27:39.832Z,63.60
2018-08-06T03:30:10.959Z,63.70
2018-08-06T03:32:39.687Z,63.80
2018-08-06T03:35:09.284Z,63.80
2018-08-06T03:37:38.007Z,63.70
2018-08-06T03:40:07.301Z,63.50
2018-08-06T03:42:35.967Z,63.70
2018-08-06T03:45:06.151Z,64.00
2018-08-06T03:52:32.624Z,64.30
2018-08-06T03:55:01.339Z,64.60
2018-08-06T03:57:30.308Z,64.60
2018-08-06T03:59:59.033Z,64.50
2018-08-06T04:02:27.741Z,64.60
2018-08-06T04:04:56.484Z,64.60
2018-08-06T04:07:25.191Z,64.50
2018-08-06T04:09:53.899Z,64.40
2018-08-06T04:12:22.622Z,64.50
2018-08-06T04:14:51.354Z,64.70
2018-08-06T04:17:20.311Z,64.80
2018-08-06T04:19:49.075Z,65.80
2018-08-06T04:22:17.739Z,64.90
2018-08-06T04:24:46.779Z,64.90
2018-08-06T04:27:15.515Z,65.00
2018-08-06T04:29:44.251Z,65.10
2018-08-06T04:32:13.001Z,65.40
2018-08-06T04:34:41.722Z,65.60
2018-08-06T04:37:10.431Z,65.80
2018-08-06T04:39:39.156Z,65.90
2018-08-06T04:42:07.900Z,66.00
2018-08-06T04:44:36.648Z,65.90
2018-08-06T04:47:05.663Z,66.10
2018-08-06T04:49:34.387Z,66.00
2018-08-06T04:52:03.095Z,65.90
2018-08-06T04:54:31.832Z,66.00
2018-08-06T04:57:01.224Z,65.90
2018-08-06T05:01:58.412Z,66.30
2018-08-06T05:04:27.140Z,66.20
2018-08-06T05:06:55.873Z,66.50
2018-08-06T05:09:25.694Z,66.60
2018-08-06T05:11:54.420Z,67.60
2018-08-06T05:14:23.157Z,67.10
2018-08-06T05:19:20.432Z,67.20
2018-08-06T05:21:49.111Z,67.20
2018-08-06T05:26:46.287Z,67.40
2018-08-06T05:29:15.045Z,67.60
2018-08-06T05:31:43.727Z,67.60
2018-08-06T05:34:12.464Z,67.80
2018-08-06T05:36:41.188Z,68.30
2018-08-06T05:39:10.236Z,68.10
2018-08-06T05:41:38.966Z,68.10
2018-08-06T05:44:07.716Z,68.70
2018-08-06T05:46:36.456Z,69.10
2018-08-06T05:49:05.252Z,69.20
2018-08-06T05:51:34.007Z,69.10
2018-08-06T05:54:03.078Z,69.00
2018-08-06T05:56:31.789Z,69.10
2018-08-06T05:59:00.503Z,69.30
2018-08-06T06:01:29.250Z,69.30
2018-08-06T06:03:57.992Z,69.10
2018-08-06T06:06:26.707Z,69.30
2018-08-06T06:08:55.443Z,69.40
2018-08-06T06:11:24.159Z,68.80
2018-08-06T06:13:52.864Z,68.40
2018-08-06T06:18:50.106Z,67.90
2018-08-06T06:21:18.864Z,67.90
2018-08-06T06:23:47.740Z,67.80
2018-08-06T06:26:16.451Z,67.80
2018-08-06T06:28:45.199Z,68.00
2018-08-06T06:31:13.993Z,68.10
2018-08-06T06:36:11.213Z,67.70
2018-08-06T06:38:39.996Z,67.40
2018-08-06T06:41:08.775Z,67.30
2018-08-06T06:43:37.518Z,67.30
2018-08-06T06:46:06.372Z,67.20
2018-08-06T06:48:35.134Z,66.80
2018-08-06T06:51:04.206Z,66.70
2018-08-06T06:53:32.912Z,66.70
2018-08-06T06:56:01.626Z,66.70
2018-08-06T06:58:30.361Z,66.60
2018-08-06T07:00:59.082Z,66.40
2018-08-06T07:03:27.808Z,66.20
2018-08-06T07:05:56.513Z,66.00
2018-08-06T07:10:53.650Z,65.80
2018-08-06T07:13:22.370Z,65.60
2018-08-06T07:15:51.120Z,65.50
2018-08-06T07:18:19.863Z,65.40
2018-08-06T07:20:48.621Z,65.40
2018-08-06T07:25:45.783Z,65.20
2018-08-06T07:28:14.524Z,65.20
2018-08-06T07:30:43.247Z,65.20
2018-08-06T07:33:11.980Z,64.40
2018-08-06T07:35:40.714Z,64.20
2018-08-06T07:38:09.427Z,64.80
2018-08-06T07:43:06.866Z,63.10
2018-08-06T07:45:35.626Z,63.10
2018-08-06T07:48:04.896Z,63.20
2018-08-06T07:53:02.520Z,63.20
2018-08-06T07:55:31.302Z,63.10
2018-08-06T07:58:00.367Z,63.00
2018-08-06T08:00:29.077Z,62.80
2018-08-06T08:02:57.906Z,63.10
2018-08-06T08:05:26.679Z,62.50
2018-08-06T08:07:55.467Z,62.50
2018-08-06T08:10:24.635Z,62.70
2018-08-06T08:12:53.489Z,62.50
2018-08-06T08:17:51.398Z,62.70
2018-08-06T08:20:20.285Z,62.20
2018-08-06T08:22:48.885Z,62.40
2018-08-06T08:25:22.909Z,62.10
2018-08-06T08:27:51.753Z,61.40
2018-08-06T08:30:20.660Z,61.00
2018-08-06T08:32:49.423Z,61.90
2018-08-06T08:35:18.343Z,61.80
2018-08-06T08:37:47.207Z,62.50
2018-08-06T08:40:21.067Z,61.30
2018-08-06T08:42:49.903Z,60.20
2018-08-06T08:45:19.072Z,59.90
2018-08-06T08:47:47.888Z,59.70
2018-08-06T08:50:18.132Z,59.70
2018-08-06T08:55:16.649Z,59.70
2018-08-06T08:57:45.518Z,58.70
2018-08-06T09:00:15.444Z,58.50
2018-08-06T09:05:14.476Z,59.20
2018-08-06T09:07:43.971Z,59.10
2018-08-06T09:10:14.094Z,58.90
2018-08-06T09:12:43.231Z,58.80
2018-08-06T09:15:14.754Z,58.80
2018-08-06T09:17:43.647Z,58.80
2018-08-06T09:20:12.738Z,59.20
2018-08-06T09:22:42.402Z,59.00
2018-08-06T09:25:11.959Z,59.00
2018-08-06T09:27:42.063Z,58.70
2018-08-06T09:30:14.971Z,58.70
2018-08-06T09:32:45.054Z,58.70
2018-08-06T09:35:14.610Z,57.80
2018-08-06T09:37:43.358Z,57.50
2018-08-06T09:42:44.250Z,56.90
2018-08-06T09:45:14.119Z,57.10
2018-08-06T09:47:44.043Z,57.00
2018-08-06T09:50:13.455Z,56.80
2018-08-06T09:52:43.249Z,56.10
2018-08-06T09:57:41.891Z,56.10
2018-08-06T10:00:20.225Z,55.80
2018-08-06T10:02:49.905Z,56.50
2018-08-06T10:05:19.703Z,55.70
2018-08-06T10:07:48.459Z,55.60
2018-08-06T10:10:17.267Z,55.60
2018-08-06T10:12:46.488Z,55.10
2018-08-06T10:15:15.659Z,54.60
2018-08-06T10:22:43.992Z,54.20
2018-08-06T10:25:13.699Z,54.90
2018-08-06T10:27:43.182Z,54.20
2018-08-06T10:30:14.633Z,53.50
2018-08-06T10:32:43.630Z,53.80
2018-08-06T10:35:13.247Z,53.90
2018-08-06T10:40:13.662Z,53.90
2018-08-06T10:42:43.203Z,54.00
2018-08-06T10:50:11.146Z,53.80
2018-08-06T10:52:39.999Z,53.80
2018-08-06T10:55:09.599Z,53.80
2018-08-06T11:00:10.391Z,53.60
2018-08-06T11:02:39.197Z,53.30
2018-08-06T11:05:09.331Z,53.10
2018-08-06T11:07:38.213Z,52.80
2018-08-06T11:10:09.939Z,52.50
2018-08-06T11:12:39.074Z,52.40
2018-08-06T11:15:12.114Z,51.90
2018-08-06T11:17:40.857Z,51.70
2018-08-06T11:20:11.461Z,51.80
2018-08-06T11:22:40.558Z,51.40
2018-08-06T11:25:10.943Z,51.60
2018-08-06T11:27:39.730Z,51.60
2018-08-06T11:32:38.630Z,50.60
2018-08-06T11:37:36.127Z,50.50
2018-08-06T11:40:06.241Z,49.70
2018-08-06T11:42:35.286Z,49.80
2018-08-06T11:45:04.560Z,49.30
2018-08-06T11:47:33.366Z,50.20
2018-08-06T11:50:02.124Z,50.50
2018-08-06T11:52:30.852Z,49.70
2018-08-06T11:54:59.655Z,49.20
2018-08-06T11:57:28.434Z,48.80
2018-08-06T11:59:57.195Z,47.70
2018-08-06T12:02:26.373Z,48.10
2018-08-06T12:04:55.088Z,48.20
2018-08-06T12:07:23.804Z,48.20
2018-08-06T12:09:52.529Z,47.90
2018-08-06T12:14:49.738Z,47.40
2018-08-06T12:17:18.461Z,47.30
2018-08-06T12:19:47.208Z,46.90
2018-08-06T12:22:15.919Z,46.60
2018-08-06T12:24:44.719Z,46.30
2018-08-06T12:27:13.609Z,45.90
2018-08-06T12:29:42.465Z,45.80
2018-08-06T12:32:11.637Z,45.60
2018-08-06T12:34:40.358Z,45.40
2018-08-06T12:37:09.074Z,46.00
2018-08-06T12:39:37.819Z,46.20
2018-08-06T12:42:06.638Z,46.10
2018-08-06T12:44:35.394Z,46.00
2018-08-06T12:47:04.218Z,45.80
2018-08-06T12:49:32.954Z,45.60
2018-08-06T12:52:01.810Z,45.90
2018-08-06T12:54:30.535Z,45.50
2018-08-06T12:56:59.292Z,45.30
2018-08-06T12:59:28.045Z,45.10
2018-08-06T13:01:56.865Z,45.20
2018-08-06T13:04:25.794Z,44.70
2018-08-06T13:06:54.525Z,44.50
2018-08-06T13:09:23.350Z,43.90
2018-08-06T13:14:20.553Z,43.40
2018-08-06T13:16:49.293Z,43.20
2018-08-06T13:19:18.031Z,42.70
2018-08-06T13:21:46.774Z,42.50
2018-08-06T13:24:15.508Z,42.60
2018-08-06T13:26:44.269Z,42.70
2018-08-06T13:31:41.435Z,42.70
2018-08-06T13:34:10.175Z,42.80
2018-08-06T13:36:38.992Z,42.10
2018-08-06T13:39:08.857Z,42.40
2018-08-06T13:41:37.595Z,42.10
2018-08-06T13:44:06.395Z,42.20
2018-08-06T13:49:03.929Z,41.70
2018-08-06T13:51:32.643Z,41.50
2018-08-06T13:54:01.395Z,41.40
2018-08-06T13:56:30.141Z,41.00
2018-08-06T13:58:58.874Z,41.70
2018-08-06T14:01:27.622Z,40.90
2018-08-06T14:03:56.354Z,40.90
2018-08-06T14:06:25.312Z,40.50
2018-08-06T14:08:54.166Z,40.60
2018-08-06T14:11:23.000Z,40.20
2018-08-06T14:13:51.908Z,40.30
2018-08-06T14:16:20.642Z,40.30
2018-08-06T14:21:18.245Z,40.70
2018-08-06T14:23:46.988Z,40.50
2018-08-06T14:26:15.747Z,40.20
2018-08-06T14:28:44.808Z,40.60
2018-08-06T14:31:13.602Z,40.30
2018-08-06T14:33:42.308Z,40.30
2018-08-06T14:36:11.032Z,39.40
2018-08-06T14:38:39.836Z,39.90
2018-08-06T14:41:08.650Z,40.10
2018-08-06T14:43:37.381Z,40.70
2018-08-06T14:46:06.391Z,39.80
2018-08-06T14:48:35.276Z,39.60
2018-08-06T14:51:04.085Z,40.30
2018-08-06T14:53:32.941Z,40.70
2018-08-06T14:56:01.926Z,40.70
2018-08-06T14:58:30.637Z,40.10
2018-08-06T15:00:59.650Z,39.80
2018-08-06T15:03:28.468Z,39.70
2018-08-06T15:05:57.215Z,39.70
2018-08-06T15:08:26.227Z,39.50
2018-08-06T15:10:55.075Z,39.40
2018-08-06T15:13:23.797Z,39.60
2018-08-06T15:15:52.500Z,39.60
2018-08-06T15:23:18.584Z,39.50
2018-08-06T15:25:47.298Z,39.70
2018-08-06T15:28:16.139Z,39.70
2018-08-06T15:30:44.932Z,39.50
2018-08-06T15:33:13.697Z,39.80
2018-08-06T15:35:42.591Z,39.80
2018-08-06T15:38:11.373Z,39.60
2018-08-06T15:40:40.086Z,40.00
2018-08-06T15:45:37.380Z,40.00
2018-08-06T15:48:06.128Z,40.00
2018-08-06T15:50:35.161Z,40.10
2018-08-06T15:53:03.908Z,40.10
2018-08-06T15:55:32.629Z,39.90
2018-08-06T15:58:01.375Z,40.30
2018-08-06T16:00:30.097Z,40.30
2018-08-06T16:07:55.817Z,45.40
2018-08-06T16:10:24.522Z,45.70
2018-08-06T16:15:21.999Z,47.40
2018-08-06T16:20:19.632Z,47.30
2018-08-06T16:22:48.356Z,46.10
2018-08-06T16:25:17.090Z,46.90
2018-08-06T16:27:45.822Z,47.10
2018-08-06T16:30:19.261Z,47.30
2018-08-06T16:32:48.439Z,47.00
2018-08-06T16:37:47.564Z,46.50
2018-08-06T16:40:16.324Z,46.60
2018-08-06T16:42:45.318Z,46.40
2018-08-06T16:45:14.379Z,46.30
2018-08-06T16:47:43.100Z,46.20
2018-08-06T16:50:13.381Z,46.10
2018-08-06T16:52:42.263Z,46.00
2018-08-06T16:55:11.231Z,45.90
2018-08-06T17:00:12.044Z,46.10
2018-08-06T17:02:40.791Z,45.60
2018-08-06T17:05:11.100Z,46.00
2018-08-06T17:10:11.044Z,46.00
2018-08-06T17:12:39.815Z,46.00
2018-08-06T17:15:09.642Z,46.00
2018-08-06T17:17:38.445Z,46.20
2018-08-06T17:20:11.235Z,46.10
2018-08-06T17:25:09.311Z,46.00
2018-08-06T17:27:38.381Z,46.00
2018-08-06T17:32:36.480Z,45.30
2018-08-06T17:37:34.049Z,45.00
2018-08-06T17:44:59.890Z,42.60
2018-08-06T17:47:28.921Z,41.80
2018-08-06T17:49:57.626Z,41.40
2018-08-06T17:52:26.344Z,41.70
2018-08-06T17:54:55.098Z,42.20
2018-08-06T17:57:23.827Z,42.90
2018-08-06T17:59:52.536Z,43.50
2018-08-06T18:04:50.123Z,43.90
2018-08-06T18:09:47.705Z,44.20
2018-08-06T18:12:16.436Z,44.30
2018-08-06T18:14:45.178Z,44.60
2018-08-06T18:19:42.764Z,44.90
2018-08-06T18:22:11.505Z,45.20
2018-08-06T18:24:40.338Z,45.20
2018-08-06T18:29:37.670Z,43.90
2018-08-06T18:32:06.930Z,43.30
2018-08-06T18:34:35.687Z,41.70
2018-08-06T18:37:04.898Z,42.00
2018-08-06T18:39:33.837Z,41.90
2018-08-06T18:42:02.560Z,41.60
2018-08-06T18:44:31.272Z,41.90
2018-08-06T18:47:00.262Z,41.60
2018-08-06T18:49:29.025Z,41.50
2018-08-06T18:51:58.662Z,41.30
2018-08-06T18:54:27.356Z,42.40
2018-08-06T18:56:56.083Z,42.00
2018-08-06T18:59:24.873Z,42.00
2018-08-06T19:01:53.868Z,42.10
2018-08-06T19:04:22.857Z,42.10
2018-08-06T19:06:51.817Z,42.90
2018-08-06T19:09:20.665Z,42.10
2018-08-06T19:11:49.507Z,41.90
2018-08-06T19:14:24.068Z,42.20
2018-08-06T19:16:53.319Z,42.30
2018-08-06T19:19:25.183Z,42.50
2018-08-06T19:21:54.787Z,42.40
2018-08-06T19:24:29.080Z,42.50
2018-08-06T19:26:57.857Z,42.60
2018-08-06T19:29:26.691Z,42.60
2018-08-06T19:31:55.570Z,42.80
2018-08-06T19:34:24.320Z,42.80
2018-08-06T19:36:58.570Z,43.60
2018-08-06T19:39:27.283Z,42.90
2018-08-06T19:41:56.107Z,43.10
2018-08-06T19:44:24.952Z,43.50
2018-08-06T19:46:53.695Z,43.80
2018-08-06T19:51:33.140Z,43.90
2018-08-06T19:54:02.854Z,43.90
2018-08-06T19:59:00.012Z,44.50
2018-08-06T20:01:29.067Z,44.60
2018-08-06T20:03:57.804Z,44.70
2018-08-06T20:06:26.527Z,45.50
2018-08-06T20:08:55.285Z,44.80
2018-08-06T20:11:23.983Z,44.80
2018-08-06T20:16:21.215Z,45.00
2018-08-06T20:18:49.922Z,45.20
2018-08-06T20:21:18.658Z,45.20
2018-08-06T20:23:47.400Z,45.30
2018-08-06T20:26:16.167Z,45.40
2018-08-06T20:28:44.955Z,45.60
2018-08-06T20:31:13.679Z,45.70
2018-08-06T20:36:10.816Z,45.90
2018-08-06T20:38:39.537Z,45.90
2018-08-06T20:43:36.951Z,46.10
2018-08-06T20:46:05.724Z,46.20
2018-08-06T20:48:34.495Z,46.30
2018-08-06T20:51:03.187Z,46.40
2018-08-06T20:53:32.073Z,46.40
2018-08-06T20:58:29.297Z,46.60
2018-08-06T21:00:58.047Z,46.50
2018-08-06T21:03:26.828Z,46.50
2018-08-06T21:05:55.578Z,46.50
2018-08-06T21:08:24.449Z,46.50
2018-08-06T21:10:53.167Z,46.50
2018-08-06T21:13:21.947Z,46.60
2018-08-06T21:15:50.734Z,46.50
2018-08-06T21:18:19.486Z,46.40
2018-08-06T21:20:48.224Z,46.40
2018-08-06T21:23:16.928Z,46.30
2018-08-06T21:25:45.633Z,46.60
2018-08-06T21:28:14.474Z,46.20
2018-08-06T21:30:43.228Z,46.10
2018-08-06T21:33:12.022Z,46.00
2018-08-06T21:35:40.743Z,46.00
2018-08-06T21:38:09.563Z,46.00
2018-08-06T21:40:38.295Z,45.90
2018-08-06T21:43:07.338Z,45.70
2018-08-06T21:48:04.599Z,45.70
2018-08-06T21:50:33.391Z,45.60
2018-08-06T21:53:02.296Z,45.70
2018-08-06T21:55:31.281Z,45.60
2018-08-06T21:58:00.186Z,45.50
2018-08-06T22:00:36.973Z,45.60
2018-08-06T22:03:16.386Z,45.70
2018-08-06T22:05:45.566Z,45.50
2018-08-06T22:08:14.314Z,45.60
2018-08-06T22:10:43.023Z,45.70
2018-08-06T22:13:11.828Z,45.70
2018-08-06T22:15:40.598Z,45.90
2018-08-06T22:18:10.634Z,45.70
2018-08-06T22:20:39.407Z,45.80
2018-08-06T22:23:08.698Z,45.90
2018-08-06T22:25:37.409Z,45.90
2018-08-06T22:28:07.784Z,45.80
2018-08-06T22:30:36.754Z,45.90
2018-08-06T22:33:06.055Z,45.90
2018-08-06T22:40:31.819Z,46.10
2018-08-06T22:43:00.600Z,46.00
2018-08-06T22:45:29.301Z,46.00
2018-08-06T22:47:58.076Z,46.00
2018-08-06T22:50:27.077Z,45.90
2018-08-06T22:52:55.806Z,45.90
2018-08-06T22:55:24.586Z,46.00
2018-08-06T22:57:53.328Z,46.00
2018-08-06T23:05:18.942Z,46.20
2018-08-06T23:07:47.676Z,46.20
2018-08-06T23:10:17.381Z,46.20
2018-08-06T23:12:46.187Z,46.30
2018-08-06T23:15:15.884Z,46.30
2018-08-06T23:17:45.040Z,46.20
2018-08-06T23:20:13.712Z,46.30
2018-08-06T23:22:42.453Z,46.30
2018-08-06T23:25:11.255Z,46.50
2018-08-06T23:27:40.148Z,46.50
2018-08-06T23:30:11.913Z,46.50
2018-08-06T23:32:40.953Z,46.60
2018-08-06T23:35:10.891Z,46.70
2018-08-06T23:37:41.139Z,46.70
2018-08-06T23:40:10.829Z,46.80
2018-08-06T23:45:10.059Z,47.00
2018-08-06T23:52:38.560Z,47.10
